sensor_id;sensor_type;location;lat;lon;timestamp;P1;durP1;ratioP1;P2;durP2;ratioP2
32760;SDS011;19126;47.472;7.850;2023-12-04T00:02:12;58.70;;;25.60;;
32760;SDS011;19126;47.472;7.850;2023-12-04T00:04:41;58.42;;;25.67;;
32760;SDS011;19126;47.472;7.850;2023-12-04T00:07:08;58.85;;;26.35;;
32760;SDS011;19126;47.472;7.850;2023-12-04T00:09:35;62.30;;;26.77;;
32760;SDS011;19126;47.472;7.850;2023-12-04T00:12:01;59.58;;;26.63;;
32760;SDS011;19126;47.472;7.850;2023-12-04T00:14:29;59.22;;;25.17;;
32760;SDS011;19126;47.472;7.850;2023-12-04T00:16:57;65.00;;;25.67;;
32760;SDS011;19126;47.472;7.850;2023-12-04T00:19:24;62.30;;;25.80;;
32760;SDS011;19126;47.472;7.850;2023-12-04T00:21:53;57.63;;;25.75;;
32760;SDS011;19126;47.472;7.850;2023-12-04T00:24:20;57.33;;;23.20;;
32760;SDS011;19126;47.472;7.850;2023-12-04T00:26:47;60.67;;;25.77;;
32760;SDS011;19126;47.472;7.850;2023-12-04T00:29:15;51.20;;;23.35;;
32760;SDS011;19126;47.472;7.850;2023-12-04T00:31:42;62.38;;;26.80;;
32760;SDS011;19126;47.472;7.850;2023-12-04T00:34:09;54.65;;;20.35;;
32760;SDS011;19126;47.472;7.850;2023-12-04T00:36:37;64.07;;;25.83;;
32760;SDS011;19126;47.472;7.850;2023-12-04T00:39:05;63.25;;;25.35;;
32760;SDS011;19126;47.472;7.850;2023-12-04T00:41:33;56.30;;;23.92;;
32760;SDS011;19126;47.472;7.850;2023-12-04T00:44:00;54.97;;;25.50;;
32760;SDS011;19126;47.472;7.850;2023-12-04T00:46:27;52.88;;;23.42;;
32760;SDS011;19126;47.472;7.850;2023-12-04T00:48:54;58.85;;;25.77;;
32760;SDS011;19126;47.472;7.850;2023-12-04T00:51:22;56.45;;;23.90;;
32760;SDS011;19126;47.472;7.850;2023-12-04T00:53:49;55.50;;;24.48;;
32760;SDS011;19126;47.472;7.850;2023-12-04T00:56:17;64.03;;;25.35;;
32760;SDS011;19126;47.472;7.850;2023-12-04T00:58:46;58.00;;;25.00;;
32760;SDS011;19126;47.472;7.850;2023-12-04T01:01:14;53.15;;;22.77;;
32760;SDS011;19126;47.472;7.850;2023-12-04T01:03:42;51.33;;;22.75;;
32760;SDS011;19126;47.472;7.850;2023-12-04T01:06:19;53.03;;;23.27;;
32760;SDS011;19126;47.472;7.850;2023-12-04T01:08:48;52.53;;;24.05;;
32760;SDS011;19126;47.472;7.850;2023-12-04T01:11:16;47.15;;;23.17;;
32760;SDS011;19126;47.472;7.850;2023-12-04T01:13:45;57.55;;;24.23;;
32760;SDS011;19126;47.472;7.850;2023-12-04T01:16:12;48.22;;;22.20;;
32760;SDS011;19126;47.472;7.850;2023-12-04T01:18:40;54.85;;;23.23;;
32760;SDS011;19126;47.472;7.850;2023-12-04T01:21:07;49.70;;;21.95;;
32760;SDS011;19126;47.472;7.850;2023-12-04T01:23:35;42.80;;;21.27;;
32760;SDS011;19126;47.472;7.850;2023-12-04T01:26:03;51.72;;;22.52;;
32760;SDS011;19126;47.472;7.850;2023-12-04T01:28:32;53.33;;;23.33;;
32760;SDS011;19126;47.472;7.850;2023-12-04T01:30:59;49.15;;;22.45;;
32760;SDS011;19126;47.472;7.850;2023-12-04T01:33:27;49.88;;;22.58;;
32760;SDS011;19126;47.472;7.850;2023-12-04T01:35:54;46.88;;;22.52;;
32760;SDS011;19126;47.472;7.850;2023-12-04T01:38:22;48.47;;;21.95;;
32760;SDS011;19126;47.472;7.850;2023-12-04T01:40:49;48.28;;;21.23;;
32760;SDS011;19126;47.472;7.850;2023-12-04T01:43:16;49.95;;;23.08;;
32760;SDS011;19126;47.472;7.850;2023-12-04T01:45:45;50.30;;;21.65;;
32760;SDS011;19126;47.472;7.850;2023-12-04T01:48:13;43.85;;;20.58;;
32760;SDS011;19126;47.472;7.850;2023-12-04T01:50:41;48.28;;;22.15;;
32760;SDS011;19126;47.472;7.850;2023-12-04T01:53:09;45.33;;;21.85;;
32760;SDS011;19126;47.472;7.850;2023-12-04T01:55:37;45.85;;;23.27;;
32760;SDS011;19126;47.472;7.850;2023-12-04T01:58:04;49.15;;;23.50;;
32760;SDS011;19126;47.472;7.850;2023-12-04T02:00:33;45.15;;;20.15;;
32760;SDS011;19126;47.472;7.850;2023-12-04T02:03:02;49.13;;;22.80;;
32760;SDS011;19126;47.472;7.850;2023-12-04T02:05:29;54.88;;;24.27;;
32760;SDS011;19126;47.472;7.850;2023-12-04T02:07:57;44.67;;;22.73;;
32760;SDS011;19126;47.472;7.850;2023-12-04T02:10:26;47.92;;;22.55;;
32760;SDS011;19126;47.472;7.850;2023-12-04T02:12:53;50.25;;;22.85;;
32760;SDS011;19126;47.472;7.850;2023-12-04T02:15:21;47.92;;;21.67;;
32760;SDS011;19126;47.472;7.850;2023-12-04T02:17:49;50.40;;;21.90;;
32760;SDS011;19126;47.472;7.850;2023-12-04T02:20:18;59.72;;;24.10;;
32760;SDS011;19126;47.472;7.850;2023-12-04T02:22:46;56.67;;;22.60;;
32760;SDS011;19126;47.472;7.850;2023-12-04T02:25:14;50.13;;;22.42;;
32760;SDS011;19126;47.472;7.850;2023-12-04T02:27:44;48.28;;;22.60;;
32760;SDS011;19126;47.472;7.850;2023-12-04T02:30:17;50.40;;;21.42;;
32760;SDS011;19126;47.472;7.850;2023-12-04T02:32:49;56.88;;;22.77;;
32760;SDS011;19126;47.472;7.850;2023-12-04T02:35:19;55.70;;;23.70;;
32760;SDS011;19126;47.472;7.850;2023-12-04T02:37:50;54.10;;;23.13;;
32760;SDS011;19126;47.472;7.850;2023-12-04T02:40:20;50.28;;;22.70;;
32760;SDS011;19126;47.472;7.850;2023-12-04T02:42:48;48.90;;;22.55;;
32760;SDS011;19126;47.472;7.850;2023-12-04T02:45:15;53.17;;;23.08;;
32760;SDS011;19126;47.472;7.850;2023-12-04T02:47:43;56.65;;;24.13;;
32760;SDS011;19126;47.472;7.850;2023-12-04T02:50:10;49.58;;;23.55;;
32760;SDS011;19126;47.472;7.850;2023-12-04T02:52:37;53.15;;;22.58;;
32760;SDS011;19126;47.472;7.850;2023-12-04T02:55:05;53.22;;;23.38;;
32760;SDS011;19126;47.472;7.850;2023-12-04T02:57:35;56.03;;;23.25;;
32760;SDS011;19126;47.472;7.850;2023-12-04T03:00:02;51.70;;;23.20;;
32760;SDS011;19126;47.472;7.850;2023-12-04T03:02:31;53.65;;;23.60;;
32760;SDS011;19126;47.472;7.850;2023-12-04T03:04:58;46.03;;;21.80;;
32760;SDS011;19126;47.472;7.850;2023-12-04T03:07:26;55.10;;;24.17;;
32760;SDS011;19126;47.472;7.850;2023-12-04T03:09:53;55.47;;;22.92;;
32760;SDS011;19126;47.472;7.850;2023-12-04T03:12:20;56.95;;;24.65;;
32760;SDS011;19126;47.472;7.850;2023-12-04T03:14:49;59.25;;;25.27;;
32760;SDS011;19126;47.472;7.850;2023-12-04T03:17:16;50.50;;;22.13;;
32760;SDS011;19126;47.472;7.850;2023-12-04T03:19:44;58.78;;;25.25;;
32760;SDS011;19126;47.472;7.850;2023-12-04T03:22:11;51.13;;;23.33;;
32760;SDS011;19126;47.472;7.850;2023-12-04T03:24:39;52.88;;;24.05;;
32760;SDS011;19126;47.472;7.850;2023-12-04T03:27:06;55.92;;;25.13;;
32760;SDS011;19126;47.472;7.850;2023-12-04T03:29:33;53.60;;;23.13;;
32760;SDS011;19126;47.472;7.850;2023-12-04T03:32:02;60.03;;;24.17;;
32760;SDS011;19126;47.472;7.850;2023-12-04T03:34:30;57.47;;;25.48;;
32760;SDS011;19126;47.472;7.850;2023-12-04T03:36:57;56.78;;;22.90;;
32760;SDS011;19126;47.472;7.850;2023-12-04T03:39:25;54.53;;;24.30;;
32760;SDS011;19126;47.472;7.850;2023-12-04T03:41:52;59.78;;;26.23;;
32760;SDS011;19126;47.472;7.850;2023-12-04T03:44:19;54.13;;;23.60;;
32760;SDS011;19126;47.472;7.850;2023-12-04T03:46:46;61.05;;;23.73;;
32760;SDS011;19126;47.472;7.850;2023-12-04T03:49:15;53.97;;;24.13;;
32760;SDS011;19126;47.472;7.850;2023-12-04T03:51:42;57.30;;;26.77;;
32760;SDS011;19126;47.472;7.850;2023-12-04T03:54:10;57.35;;;24.77;;
32760;SDS011;19126;47.472;7.850;2023-12-04T03:56:38;56.00;;;26.20;;
32760;SDS011;19126;47.472;7.850;2023-12-04T03:59:08;64.95;;;26.58;;
32760;SDS011;19126;47.472;7.850;2023-12-04T04:01:36;60.00;;;25.10;;
32760;SDS011;19126;47.472;7.850;2023-12-04T04:04:03;58.25;;;25.45;;
32760;SDS011;19126;47.472;7.850;2023-12-04T04:06:32;56.50;;;24.60;;
32760;SDS011;19126;47.472;7.850;2023-12-04T04:08:59;52.00;;;22.90;;
32760;SDS011;19126;47.472;7.850;2023-12-04T04:11:26;51.92;;;24.88;;
32760;SDS011;19126;47.472;7.850;2023-12-04T04:13:53;58.90;;;24.27;;
32760;SDS011;19126;47.472;7.850;2023-12-04T04:16:21;50.50;;;22.92;;
32760;SDS011;19126;47.472;7.850;2023-12-04T04:18:48;57.72;;;24.60;;
32760;SDS011;19126;47.472;7.850;2023-12-04T04:21:15;54.55;;;25.35;;
32760;SDS011;19126;47.472;7.850;2023-12-04T04:23:44;53.88;;;24.02;;
32760;SDS011;19126;47.472;7.850;2023-12-04T04:26:11;57.75;;;25.50;;
32760;SDS011;19126;47.472;7.850;2023-12-04T04:28:38;58.15;;;23.35;;
32760;SDS011;19126;47.472;7.850;2023-12-04T04:31:06;58.70;;;24.45;;
32760;SDS011;19126;47.472;7.850;2023-12-04T04:33:33;49.72;;;23.48;;
32760;SDS011;19126;47.472;7.850;2023-12-04T04:36:01;59.17;;;25.40;;
32760;SDS011;19126;47.472;7.850;2023-12-04T04:38:29;57.60;;;25.25;;
32760;SDS011;19126;47.472;7.850;2023-12-04T04:40:59;59.67;;;25.70;;
32760;SDS011;19126;47.472;7.850;2023-12-04T04:43:27;52.10;;;23.45;;
32760;SDS011;19126;47.472;7.850;2023-12-04T04:45:55;57.40;;;26.15;;
32760;SDS011;19126;47.472;7.850;2023-12-04T04:48:22;51.55;;;23.40;;
32760;SDS011;19126;47.472;7.850;2023-12-04T04:50:49;56.30;;;24.55;;
32760;SDS011;19126;47.472;7.850;2023-12-04T04:53:17;59.33;;;25.00;;
32760;SDS011;19126;47.472;7.850;2023-12-04T04:55:44;56.05;;;24.70;;
32760;SDS011;19126;47.472;7.850;2023-12-04T04:58:13;53.08;;;23.77;;
32760;SDS011;19126;47.472;7.850;2023-12-04T05:00:40;56.90;;;25.33;;
32760;SDS011;19126;47.472;7.850;2023-12-04T05:03:07;57.75;;;24.92;;
32760;SDS011;19126;47.472;7.850;2023-12-04T05:05:35;60.30;;;25.02;;
32760;SDS011;19126;47.472;7.850;2023-12-04T05:08:02;60.10;;;26.63;;
32760;SDS011;19126;47.472;7.850;2023-12-04T05:10:30;79.75;;;30.83;;
32760;SDS011;19126;47.472;7.850;2023-12-04T05:12:58;60.05;;;26.13;;
32760;SDS011;19126;47.472;7.850;2023-12-04T05:15:27;65.10;;;26.70;;
32760;SDS011;19126;47.472;7.850;2023-12-04T05:17:54;54.22;;;24.10;;
32760;SDS011;19126;47.472;7.850;2023-12-04T05:20:21;55.75;;;24.05;;
32760;SDS011;19126;47.472;7.850;2023-12-04T05:22:49;55.92;;;24.48;;
32760;SDS011;19126;47.472;7.850;2023-12-04T05:25:17;53.55;;;22.65;;
32760;SDS011;19126;47.472;7.850;2023-12-04T05:27:44;56.97;;;25.45;;
32760;SDS011;19126;47.472;7.850;2023-12-04T05:30:12;57.00;;;24.85;;
32760;SDS011;19126;47.472;7.850;2023-12-04T05:32:41;57.05;;;24.85;;
32760;SDS011;19126;47.472;7.850;2023-12-04T05:35:09;56.53;;;25.70;;
32760;SDS011;19126;47.472;7.850;2023-12-04T05:37:36;52.38;;;24.05;;
32760;SDS011;19126;47.472;7.850;2023-12-04T05:40:04;52.13;;;24.38;;
32760;SDS011;19126;47.472;7.850;2023-12-04T05:42:34;55.15;;;26.58;;
32760;SDS011;19126;47.472;7.850;2023-12-04T05:45:01;52.40;;;24.30;;
32760;SDS011;19126;47.472;7.850;2023-12-04T05:47:29;57.88;;;23.23;;
32760;SDS011;19126;47.472;7.850;2023-12-04T05:49:58;57.60;;;24.15;;
32760;SDS011;19126;47.472;7.850;2023-12-04T05:52:25;57.75;;;25.52;;
32760;SDS011;19126;47.472;7.850;2023-12-04T05:54:53;54.25;;;23.92;;
32760;SDS011;19126;47.472;7.850;2023-12-04T05:57:20;53.08;;;24.95;;
32760;SDS011;19126;47.472;7.850;2023-12-04T05:59:47;54.67;;;24.02;;
32760;SDS011;19126;47.472;7.850;2023-12-04T06:02:15;49.95;;;24.42;;
32760;SDS011;19126;47.472;7.850;2023-12-04T06:04:42;49.42;;;22.38;;
32760;SDS011;19126;47.472;7.850;2023-12-04T06:07:11;49.25;;;22.98;;
32760;SDS011;19126;47.472;7.850;2023-12-04T06:09:38;50.58;;;23.88;;
32760;SDS011;19126;47.472;7.850;2023-12-04T06:12:05;49.65;;;21.88;;
32760;SDS011;19126;47.472;7.850;2023-12-04T06:14:34;48.72;;;24.35;;
32760;SDS011;19126;47.472;7.850;2023-12-04T06:17:02;49.72;;;21.83;;
32760;SDS011;19126;47.472;7.850;2023-12-04T06:19:30;45.33;;;22.02;;
32760;SDS011;19126;47.472;7.850;2023-12-04T06:21:57;48.20;;;21.73;;
32760;SDS011;19126;47.472;7.850;2023-12-04T06:24:26;50.42;;;22.88;;
32760;SDS011;19126;47.472;7.850;2023-12-04T06:26:54;45.80;;;20.50;;
32760;SDS011;19126;47.472;7.850;2023-12-04T06:29:23;48.17;;;21.75;;
32760;SDS011;19126;47.472;7.850;2023-12-04T06:31:51;44.25;;;20.15;;
32760;SDS011;19126;47.472;7.850;2023-12-04T06:34:19;39.80;;;18.73;;
32760;SDS011;19126;47.472;7.850;2023-12-04T06:36:48;63.75;;;26.17;;
32760;SDS011;19126;47.472;7.850;2023-12-04T06:39:16;41.72;;;20.15;;
32760;SDS011;19126;47.472;7.850;2023-12-04T06:41:45;43.38;;;20.27;;
32760;SDS011;19126;47.472;7.850;2023-12-04T06:44:13;44.05;;;20.98;;
32760;SDS011;19126;47.472;7.850;2023-12-04T06:46:41;45.75;;;21.58;;
32760;SDS011;19126;47.472;7.850;2023-12-04T06:49:15;45.00;;;19.95;;
32760;SDS011;19126;47.472;7.850;2023-12-04T06:51:45;45.08;;;20.90;;
32760;SDS011;19126;47.472;7.850;2023-12-04T06:54:12;36.50;;;19.30;;
32760;SDS011;19126;47.472;7.850;2023-12-04T06:56:40;40.63;;;19.10;;
32760;SDS011;19126;47.472;7.850;2023-12-04T06:59:08;40.72;;;19.92;;
32760;SDS011;19126;47.472;7.850;2023-12-04T07:01:36;48.95;;;20.80;;
32760;SDS011;19126;47.472;7.850;2023-12-04T07:04:03;43.08;;;19.73;;
32760;SDS011;19126;47.472;7.850;2023-12-04T07:09:01;40.78;;;18.65;;
32760;SDS011;19126;47.472;7.850;2023-12-04T07:11:29;43.60;;;19.33;;
32760;SDS011;19126;47.472;7.850;2023-12-04T07:13:57;41.72;;;20.67;;
32760;SDS011;19126;47.472;7.850;2023-12-04T07:16:26;44.95;;;19.88;;
32760;SDS011;19126;47.472;7.850;2023-12-04T07:18:53;49.55;;;22.15;;
32760;SDS011;19126;47.472;7.850;2023-12-04T07:21:20;41.35;;;19.13;;
32760;SDS011;19126;47.472;7.850;2023-12-04T07:23:47;46.97;;;20.80;;
32760;SDS011;19126;47.472;7.850;2023-12-04T07:26:15;58.60;;;25.02;;
32760;SDS011;19126;47.472;7.850;2023-12-04T07:28:42;53.72;;;21.20;;
32760;SDS011;19126;47.472;7.850;2023-12-04T07:31:09;58.53;;;25.85;;
32760;SDS011;19126;47.472;7.850;2023-12-04T07:33:38;62.20;;;24.77;;
32760;SDS011;19126;47.472;7.850;2023-12-04T07:36:05;61.95;;;23.67;;
32760;SDS011;19126;47.472;7.850;2023-12-04T07:38:33;58.75;;;24.58;;
32760;SDS011;19126;47.472;7.850;2023-12-04T07:41:01;65.35;;;26.77;;
32760;SDS011;19126;47.472;7.850;2023-12-04T07:43:30;63.92;;;25.85;;
32760;SDS011;19126;47.472;7.850;2023-12-04T07:45:57;63.75;;;26.27;;
32760;SDS011;19126;47.472;7.850;2023-12-04T07:48:25;65.32;;;26.55;;
32760;SDS011;19126;47.472;7.850;2023-12-04T07:50:55;57.33;;;24.33;;
32760;SDS011;19126;47.472;7.850;2023-12-04T07:53:22;62.40;;;26.13;;
32760;SDS011;19126;47.472;7.850;2023-12-04T07:55:49;59.42;;;26.50;;
32760;SDS011;19126;47.472;7.850;2023-12-04T07:58:17;65.28;;;26.77;;
32760;SDS011;19126;47.472;7.850;2023-12-04T08:00:44;63.88;;;27.17;;
32760;SDS011;19126;47.472;7.850;2023-12-04T08:03:11;63.58;;;26.38;;
32760;SDS011;19126;47.472;7.850;2023-12-04T08:05:39;58.88;;;25.80;;
32760;SDS011;19126;47.472;7.850;2023-12-04T08:08:07;66.75;;;26.70;;
32760;SDS011;19126;47.472;7.850;2023-12-04T08:10:35;58.08;;;26.17;;
32760;SDS011;19126;47.472;7.850;2023-12-04T08:13:02;58.30;;;25.58;;
32760;SDS011;19126;47.472;7.850;2023-12-04T08:15:30;64.82;;;26.63;;
32760;SDS011;19126;47.472;7.850;2023-12-04T08:17:57;55.78;;;23.70;;
32760;SDS011;19126;47.472;7.850;2023-12-04T08:20:25;55.53;;;23.80;;
32760;SDS011;19126;47.472;7.850;2023-12-04T08:22:53;57.17;;;24.50;;
32760;SDS011;19126;47.472;7.850;2023-12-04T08:25:22;56.33;;;23.63;;
32760;SDS011;19126;47.472;7.850;2023-12-04T08:27:49;55.90;;;24.35;;
32760;SDS011;19126;47.472;7.850;2023-12-04T08:30:17;58.65;;;24.50;;
32760;SDS011;19126;47.472;7.850;2023-12-04T08:32:44;58.42;;;24.88;;
32760;SDS011;19126;47.472;7.850;2023-12-04T08:35:12;57.72;;;24.83;;
32760;SDS011;19126;47.472;7.850;2023-12-04T08:37:39;52.33;;;24.48;;
32760;SDS011;19126;47.472;7.850;2023-12-04T08:40:07;56.55;;;24.52;;
32760;SDS011;19126;47.472;7.850;2023-12-04T08:42:37;55.50;;;23.85;;
32760;SDS011;19126;47.472;7.850;2023-12-04T08:45:05;50.92;;;24.20;;
32760;SDS011;19126;47.472;7.850;2023-12-04T08:47:35;58.55;;;24.80;;
32760;SDS011;19126;47.472;7.850;2023-12-04T08:50:03;53.13;;;22.88;;
32760;SDS011;19126;47.472;7.850;2023-12-04T08:52:31;57.60;;;22.90;;
32760;SDS011;19126;47.472;7.850;2023-12-04T08:55:01;55.30;;;24.85;;
32760;SDS011;19126;47.472;7.850;2023-12-04T08:57:32;56.30;;;24.90;;
32760;SDS011;19126;47.472;7.850;2023-12-04T09:00:01;54.80;;;24.20;;
32760;SDS011;19126;47.472;7.850;2023-12-04T09:02:29;58.25;;;24.33;;
32760;SDS011;19126;47.472;7.850;2023-12-04T09:04:56;55.65;;;24.45;;
32760;SDS011;19126;47.472;7.850;2023-12-04T09:07:24;60.30;;;24.15;;
32760;SDS011;19126;47.472;7.850;2023-12-04T09:09:51;51.78;;;22.25;;
32760;SDS011;19126;47.472;7.850;2023-12-04T09:12:18;53.65;;;24.00;;
32760;SDS011;19126;47.472;7.850;2023-12-04T09:14:46;51.17;;;22.60;;
32760;SDS011;19126;47.472;7.850;2023-12-04T09:17:15;52.92;;;23.08;;
32760;SDS011;19126;47.472;7.850;2023-12-04T09:19:42;45.80;;;21.92;;
32760;SDS011;19126;47.472;7.850;2023-12-04T09:22:09;62.50;;;25.83;;
32760;SDS011;19126;47.472;7.850;2023-12-04T09:24:37;54.10;;;24.08;;
32760;SDS011;19126;47.472;7.850;2023-12-04T09:27:04;47.33;;;21.67;;
32760;SDS011;19126;47.472;7.850;2023-12-04T09:29:32;52.60;;;22.95;;
32760;SDS011;19126;47.472;7.850;2023-12-04T09:31:59;47.83;;;20.98;;
32760;SDS011;19126;47.472;7.850;2023-12-04T09:34:28;54.47;;;23.15;;
32760;SDS011;19126;47.472;7.850;2023-12-04T09:36:55;50.65;;;21.75;;
32760;SDS011;19126;47.472;7.850;2023-12-04T09:39:23;57.45;;;23.35;;
32760;SDS011;19126;47.472;7.850;2023-12-04T09:41:50;56.60;;;24.15;;
32760;SDS011;19126;47.472;7.850;2023-12-04T09:44:18;47.58;;;22.30;;
32760;SDS011;19126;47.472;7.850;2023-12-04T09:46:48;50.05;;;22.73;;
32760;SDS011;19126;47.472;7.850;2023-12-04T09:49:15;49.42;;;22.10;;
32760;SDS011;19126;47.472;7.850;2023-12-04T09:51:45;57.67;;;22.55;;
32760;SDS011;19126;47.472;7.850;2023-12-04T09:54:13;48.03;;;23.00;;
32760;SDS011;19126;47.472;7.850;2023-12-04T09:59:12;49.85;;;22.13;;
32760;SDS011;19126;47.472;7.850;2023-12-04T10:01:41;54.15;;;24.42;;
32760;SDS011;19126;47.472;7.850;2023-12-04T10:04:12;54.40;;;23.42;;
32760;SDS011;19126;47.472;7.850;2023-12-04T10:06:39;57.80;;;24.20;;
32760;SDS011;19126;47.472;7.850;2023-12-04T10:09:09;49.25;;;22.00;;
32760;SDS011;19126;47.472;7.850;2023-12-04T10:11:41;58.42;;;23.88;;
32760;SDS011;19126;47.472;7.850;2023-12-04T10:14:13;54.92;;;22.63;;
32760;SDS011;19126;47.472;7.850;2023-12-04T10:16:42;50.60;;;23.17;;
32760;SDS011;19126;47.472;7.850;2023-12-04T10:19:20;50.10;;;22.85;;
32760;SDS011;19126;47.472;7.850;2023-12-04T10:21:51;49.88;;;22.10;;
32760;SDS011;19126;47.472;7.850;2023-12-04T10:24:31;48.72;;;21.50;;
32760;SDS011;19126;47.472;7.850;2023-12-04T10:27:00;53.20;;;23.52;;
32760;SDS011;19126;47.472;7.850;2023-12-04T10:29:29;47.45;;;22.33;;
32760;SDS011;19126;47.472;7.850;2023-12-04T10:32:08;50.28;;;22.05;;
32760;SDS011;19126;47.472;7.850;2023-12-04T10:34:36;56.17;;;23.17;;
32760;SDS011;19126;47.472;7.850;2023-12-04T10:37:04;48.85;;;23.17;;
32760;SDS011;19126;47.472;7.850;2023-12-04T10:39:32;47.63;;;23.60;;
32760;SDS011;19126;47.472;7.850;2023-12-04T10:42:22;55.03;;;24.42;;
32760;SDS011;19126;47.472;7.850;2023-12-04T10:44:52;52.10;;;24.30;;
32760;SDS011;19126;47.472;7.850;2023-12-04T10:47:21;44.55;;;21.73;;
32760;SDS011;19126;47.472;7.850;2023-12-04T10:49:49;38.90;;;19.85;;
32760;SDS011;19126;47.472;7.850;2023-12-04T10:52:17;43.70;;;20.90;;
32760;SDS011;19126;47.472;7.850;2023-12-04T10:54:46;48.17;;;22.90;;
32760;SDS011;19126;47.472;7.850;2023-12-04T10:57:16;45.50;;;21.40;;
32760;SDS011;19126;47.472;7.850;2023-12-04T10:59:49;47.40;;;21.00;;
32760;SDS011;19126;47.472;7.850;2023-12-04T11:02:22;44.85;;;21.67;;
32760;SDS011;19126;47.472;7.850;2023-12-04T11:04:55;53.55;;;23.95;;
32760;SDS011;19126;47.472;7.850;2023-12-04T11:07:27;46.85;;;21.52;;
32760;SDS011;19126;47.472;7.850;2023-12-04T11:10:00;51.42;;;24.05;;
32760;SDS011;19126;47.472;7.850;2023-12-04T11:12:33;54.08;;;24.50;;
32760;SDS011;19126;47.472;7.850;2023-12-04T11:15:02;49.88;;;23.50;;
32760;SDS011;19126;47.472;7.850;2023-12-04T11:17:31;50.38;;;22.92;;
32760;SDS011;19126;47.472;7.850;2023-12-04T11:20:04;44.40;;;22.23;;
32760;SDS011;19126;47.472;7.850;2023-12-04T11:22:41;48.47;;;22.73;;
32760;SDS011;19126;47.472;7.850;2023-12-04T11:25:10;51.83;;;22.95;;
32760;SDS011;19126;47.472;7.850;2023-12-04T11:27:39;57.92;;;22.35;;
32760;SDS011;19126;47.472;7.850;2023-12-04T11:30:07;53.35;;;23.33;;
32760;SDS011;19126;47.472;7.850;2023-12-04T11:32:43;46.80;;;20.70;;
32760;SDS011;19126;47.472;7.850;2023-12-04T11:35:12;48.47;;;21.95;;
32760;SDS011;19126;47.472;7.850;2023-12-04T11:37:42;47.25;;;20.67;;
32760;SDS011;19126;47.472;7.850;2023-12-04T11:40:13;44.08;;;20.25;;
32760;SDS011;19126;47.472;7.850;2023-12-04T11:42:42;45.03;;;21.77;;
32760;SDS011;19126;47.472;7.850;2023-12-04T11:45:09;38.75;;;19.45;;
32760;SDS011;19126;47.472;7.850;2023-12-04T11:47:50;51.00;;;20.20;;
32760;SDS011;19126;47.472;7.850;2023-12-04T11:50:20;51.53;;;21.52;;
32760;SDS011;19126;47.472;7.850;2023-12-04T11:52:54;47.72;;;23.13;;
32760;SDS011;19126;47.472;7.850;2023-12-04T11:55:23;43.63;;;20.05;;
32760;SDS011;19126;47.472;7.850;2023-12-04T11:57:54;45.95;;;21.60;;
32760;SDS011;19126;47.472;7.850;2023-12-04T12:00:23;45.17;;;20.65;;
32760;SDS011;19126;47.472;7.850;2023-12-04T12:03:00;49.47;;;22.83;;
32760;SDS011;19126;47.472;7.850;2023-12-04T12:05:31;51.40;;;21.70;;
32760;SDS011;19126;47.472;7.850;2023-12-04T12:08:03;51.08;;;23.02;;
32760;SDS011;19126;47.472;7.850;2023-12-04T12:10:33;47.75;;;22.83;;
32760;SDS011;19126;47.472;7.850;2023-12-04T12:13:01;49.75;;;22.15;;
32760;SDS011;19126;47.472;7.850;2023-12-04T12:15:29;50.17;;;21.80;;
32760;SDS011;19126;47.472;7.850;2023-12-04T12:17:58;48.95;;;21.55;;
32760;SDS011;19126;47.472;7.850;2023-12-04T12:20:25;50.47;;;22.80;;
32760;SDS011;19126;47.472;7.850;2023-12-04T12:22:53;50.38;;;21.33;;
32760;SDS011;19126;47.472;7.850;2023-12-04T12:25:20;50.88;;;22.80;;
32760;SDS011;19126;47.472;7.850;2023-12-04T12:27:50;44.83;;;20.33;;
32760;SDS011;19126;47.472;7.850;2023-12-04T12:30:17;52.40;;;22.55;;
32760;SDS011;19126;47.472;7.850;2023-12-04T12:32:44;42.72;;;20.02;;
32760;SDS011;19126;47.472;7.850;2023-12-04T12:35:12;41.47;;;18.55;;
32760;SDS011;19126;47.472;7.850;2023-12-04T12:37:39;46.38;;;19.85;;
32760;SDS011;19126;47.472;7.850;2023-12-04T12:40:07;44.00;;;19.77;;
32760;SDS011;19126;47.472;7.850;2023-12-04T12:42:37;41.42;;;18.92;;
32760;SDS011;19126;47.472;7.850;2023-12-04T12:45:09;47.47;;;21.60;;
32760;SDS011;19126;47.472;7.850;2023-12-04T12:47:37;43.75;;;20.05;;
32760;SDS011;19126;47.472;7.850;2023-12-04T12:50:07;41.55;;;18.15;;
32760;SDS011;19126;47.472;7.850;2023-12-04T12:52:38;40.45;;;18.42;;
32760;SDS011;19126;47.472;7.850;2023-12-04T12:55:06;38.53;;;18.50;;
32760;SDS011;19126;47.472;7.850;2023-12-04T12:57:34;36.47;;;18.02;;
32760;SDS011;19126;47.472;7.850;2023-12-04T13:00:02;33.80;;;15.25;;
32760;SDS011;19126;47.472;7.850;2023-12-04T13:02:37;28.10;;;15.02;;
32760;SDS011;19126;47.472;7.850;2023-12-04T13:05:04;28.30;;;14.45;;
32760;SDS011;19126;47.472;7.850;2023-12-04T13:07:32;34.03;;;15.70;;
32760;SDS011;19126;47.472;7.850;2023-12-04T13:10:00;29.60;;;15.63;;
32760;SDS011;19126;47.472;7.850;2023-12-04T13:12:30;31.38;;;17.35;;
32760;SDS011;19126;47.472;7.850;2023-12-04T13:14:58;31.35;;;15.25;;
32760;SDS011;19126;47.472;7.850;2023-12-04T13:17:25;32.80;;;15.15;;
32760;SDS011;19126;47.472;7.850;2023-12-04T13:19:54;31.35;;;15.07;;
32760;SDS011;19126;47.472;7.850;2023-12-04T13:22:21;27.73;;;13.85;;
32760;SDS011;19126;47.472;7.850;2023-12-04T13:24:49;30.08;;;13.90;;
32760;SDS011;19126;47.472;7.850;2023-12-04T13:27:16;25.67;;;13.27;;
32760;SDS011;19126;47.472;7.850;2023-12-04T13:29:43;31.27;;;16.02;;
32760;SDS011;19126;47.472;7.850;2023-12-04T13:32:14;27.60;;;13.30;;
32760;SDS011;19126;47.472;7.850;2023-12-04T13:34:41;29.98;;;14.73;;
32760;SDS011;19126;47.472;7.850;2023-12-04T13:37:10;30.58;;;15.18;;
32760;SDS011;19126;47.472;7.850;2023-12-04T13:39:38;30.30;;;15.07;;
32760;SDS011;19126;47.472;7.850;2023-12-04T13:42:13;46.05;;;18.33;;
32760;SDS011;19126;47.472;7.850;2023-12-04T13:44:59;34.42;;;16.50;;
32760;SDS011;19126;47.472;7.850;2023-12-04T13:47:26;31.92;;;15.32;;
32760;SDS011;19126;47.472;7.850;2023-12-04T13:49:54;24.67;;;13.27;;
32760;SDS011;19126;47.472;7.850;2023-12-04T13:52:24;30.95;;;14.93;;
32760;SDS011;19126;47.472;7.850;2023-12-04T13:54:57;31.02;;;15.45;;
32760;SDS011;19126;47.472;7.850;2023-12-04T13:57:25;29.52;;;15.20;;
32760;SDS011;19126;47.472;7.850;2023-12-04T13:59:57;21.08;;;12.48;;
32760;SDS011;19126;47.472;7.850;2023-12-04T14:02:25;26.63;;;13.27;;
32760;SDS011;19126;47.472;7.850;2023-12-04T14:04:52;26.65;;;13.70;;
32760;SDS011;19126;47.472;7.850;2023-12-04T14:07:20;26.42;;;13.70;;
32760;SDS011;19126;47.472;7.850;2023-12-04T14:09:49;27.80;;;15.02;;
32760;SDS011;19126;47.472;7.850;2023-12-04T14:12:16;31.30;;;14.85;;
32760;SDS011;19126;47.472;7.850;2023-12-04T14:14:44;27.05;;;14.40;;
32760;SDS011;19126;47.472;7.850;2023-12-04T14:17:12;34.40;;;15.10;;
32760;SDS011;19126;47.472;7.850;2023-12-04T14:19:39;30.65;;;14.82;;
32760;SDS011;19126;47.472;7.850;2023-12-04T14:22:06;28.02;;;14.90;;
32760;SDS011;19126;47.472;7.850;2023-12-04T14:24:34;28.35;;;14.20;;
32760;SDS011;19126;47.472;7.850;2023-12-04T14:27:03;61.88;;;14.27;;
32760;SDS011;19126;47.472;7.850;2023-12-04T14:29:31;27.83;;;13.98;;
32760;SDS011;19126;47.472;7.850;2023-12-04T14:31:58;34.15;;;16.50;;
32760;SDS011;19126;47.472;7.850;2023-12-04T14:34:26;30.08;;;15.50;;